Time;durP1;ratioP1;P1;durP2;ratioP2;P2;SDS_P1;SDS_P2;PMS_P1;PMS_P2;Temp;Humidity;BMP_temperature;BMP_pressure;BME280_temperature;BME280_humidity;BME280_pressure;Samples;Min_cycle;Max_cycle;Signal;HPM_P1;HPM_P2
2023/08/31 00:01:37;;;;;;;6.87;3.73;;;;;;;;;;5052573;28;20465;-80
2023/08/31 00:04:08;;;;;;;6.47;3.80;;;;;;;;;;5058418;28;21015;-80
2023/08/31 00:06:34;;;;;;;6.93;4.33;;;;;;;;;;5047744;28;20473;-80
2023/08/31 00:09:00;;;;;;;8.87;4.27;;;;;;;;;;5050662;28;20443;-80
2023/08/31 00:11:27;;;;;;;8.73;4.27;;;;;;;;;;5056655;28;20488;-81
2023/08/31 00:13:53;;;;;;;5.97;4.60;;;;;;;;;;5033845;28;20468;-80
2023/08/31 00:16:25;;;;;;;6.60;4.07;;;;;;;;;;5043326;28;20494;-80
2023/08/31 00:18:52;;;;;;;7.07;4.27;;;;;;;;;;5051162;28;20464;-80
2023/08/31 00:21:20;;;;;;;5.30;4.80;;;;;;;;;;5058390;28;20563;-81
2023/08/31 00:23:47;;;;;;;4.40;4.00;;;;;;;;;;5050346;28;20467;-79
2023/08/31 00:26:13;;;;;;;5.10;3.80;;;;;;;;;;5050502;28;21170;-81
2023/08/31 00:28:42;;;;;;;6.50;4.17;;;;;;;;;;5036988;28;20479;-80
2023/08/31 00:31:08;;;;;;;5.83;4.03;;;;;;;;;;5051053;28;20479;-80
2023/08/31 00:33:35;;;;;;;8.67;3.70;;;;;;;;;;5045809;28;21021;-80
2023/08/31 00:36:03;;;;;;;6.07;4.07;;;;;;;;;;5051215;28;20468;-80
2023/08/31 00:38:31;;;;;;;5.87;3.60;;;;;;;;;;5045649;28;21030;-80
2023/08/31 00:40:57;;;;;;;6.37;3.77;;;;;;;;;;5050962;28;20487;-80
2023/08/31 00:43:24;;;;;;;4.03;3.73;;;;;;;;;;5042718;28;21004;-80
2023/08/31 00:45:52;;;;;;;4.13;3.73;;;;;;;;;;5055978;28;20981;-80
2023/08/31 00:48:19;;;;;;;6.43;4.10;;;;;;;;;;5060452;28;20894;-80
2023/08/31 00:50:48;;;;;;;6.97;3.80;;;;;;;;;;5052648;28;20463;-80
2023/08/31 00:53:14;;;;;;;5.77;3.93;;;;;;;;;;5046622;28;20443;-80
2023/08/31 00:55:42;;;;;;;5.07;3.63;;;;;;;;;;5052037;28;20560;-80
2023/08/31 00:58:09;;;;;;;7.73;3.83;;;;;;;;;;5043809;28;20993;-80
2023/08/31 01:00:41;;;;;;;6.63;3.70;;;;;;;;;;5055178;28;20858;-80
2023/08/31 01:03:11;;;;;;;4.70;3.50;;;;;;;;;;5050006;28;20464;-80
2023/08/31 01:05:41;;;;;;;10.10;3.90;;;;;;;;;;5070303;28;20957;-80
2023/08/31 01:08:13;;;;;;;3.70;3.27;;;;;;;;;;5052968;28;20470;-80
2023/08/31 01:10:45;;;;;;;5.40;3.77;;;;;;;;;;5055695;28;20488;-81
2023/08/31 01:13:14;;;;;;;7.00;3.87;;;;;;;;;;5051139;28;20922;-81
2023/08/31 01:15:42;;;;;;;5.43;3.60;;;;;;;;;;5069419;28;20497;-81
2023/08/31 01:18:10;;;;;;;4.50;3.70;;;;;;;;;;5047703;28;20471;-80
2023/08/31 01:20:39;;;;;;;7.33;4.30;;;;;;;;;;5052624;28;20994;-80
2023/08/31 01:23:07;;;;;;;11.47;4.20;;;;;;;;;;5049724;28;20462;-80
2023/08/31 01:25:35;;;;;;;7.00;4.07;;;;;;;;;;5066212;28;20507;-80
2023/08/31 01:28:03;;;;;;;8.63;4.23;;;;;;;;;;5053499;28;20456;-80
2023/08/31 01:30:30;;;;;;;11.63;5.07;;;;;;;;;;5056907;28;20557;-81
2023/08/31 01:32:57;;;;;;;9.00;5.00;;;;;;;;;;5055224;28;20470;-81
2023/08/31 01:35:24;;;;;;;10.30;4.97;;;;;;;;;;5054433;28;20473;-80
2023/08/31 01:37:52;;;;;;;10.40;4.43;;;;;;;;;;5053761;28;20464;-80
2023/08/31 01:40:21;;;;;;;9.97;4.37;;;;;;;;;;5042001;28;21228;-80
2023/08/31 01:42:48;;;;;;;8.30;4.87;;;;;;;;;;5035575;28;20517;-80
2023/08/31 01:45:16;;;;;;;6.23;5.07;;;;;;;;;;5049813;28;20458;-81
2023/08/31 01:47:43;;;;;;;9.20;4.70;;;;;;;;;;5055524;28;20467;-80
2023/08/31 01:50:10;;;;;;;5.20;3.90;;;;;;;;;;5062418;28;20484;-80
2023/08/31 01:52:36;;;;;;;9.03;3.93;;;;;;;;;;5054742;28;20579;-81
2023/08/31 01:55:03;;;;;;;13.17;4.67;;;;;;;;;;5053732;28;20436;-79
2023/08/31 01:57:29;;;;;;;7.83;4.43;;;;;;;;;;5051568;28;21074;-81
2023/08/31 01:59:57;;;;;;;5.83;4.07;;;;;;;;;;5049608;28;20479;-80
2023/08/31 02:02:24;;;;;;;8.47;4.63;;;;;;;;;;5057544;28;20793;-81
2023/08/31 02:04:51;;;;;;;7.70;5.20;;;;;;;;;;5054625;28;20487;-80
2023/08/31 02:07:18;;;;;;;6.27;4.63;;;;;;;;;;5049415;28;20495;-80
2023/08/31 02:09:44;;;;;;;5.27;4.63;;;;;;;;;;5046961;28;20500;-80
2023/08/31 02:12:11;;;;;;;5.20;4.03;;;;;;;;;;5037807;28;20488;-80
2023/08/31 02:14:38;;;;;;;6.53;5.00;;;;;;;;;;5052917;28;20871;-80
2023/08/31 02:17:06;;;;;;;5.67;4.37;;;;;;;;;;5046201;28;20988;-80
2023/08/31 02:19:32;;;;;;;9.27;4.70;;;;;;;;;;5058441;28;21024;-80
2023/08/31 02:21:58;;;;;;;6.20;4.47;;;;;;;;;;5050507;28;20492;-80
2023/08/31 02:24:25;;;;;;;8.50;5.00;;;;;;;;;;5040736;28;20476;-80
2023/08/31 02:26:52;;;;;;;15.43;5.27;;;;;;;;;;5046847;28;20487;-81
2023/08/31 02:29:19;;;;;;;5.23;4.30;;;;;;;;;;5047979;28;20447;-80
2023/08/31 02:31:46;;;;;;;6.40;4.90;;;;;;;;;;5047888;28;20489;-80
2023/08/31 02:34:14;;;;;;;7.83;4.67;;;;;;;;;;5044872;28;20471;-80
2023/08/31 02:36:40;;;;;;;9.70;5.37;;;;;;;;;;5053389;28;20485;-81
2023/08/31 02:39:07;;;;;;;10.60;6.40;;;;;;;;;;5058134;28;20453;-80
2023/08/31 02:41:33;;;;;;;9.60;5.20;;;;;;;;;;5042317;28;20494;-80
2023/08/31 02:44:00;;;;;;;14.93;5.33;;;;;;;;;;5055778;28;20467;-81
2023/08/31 02:46:26;;;;;;;7.03;4.70;;;;;;;;;;5064551;28;20475;-80
2023/08/31 02:48:52;;;;;;;8.30;5.13;;;;;;;;;;5058176;28;20471;-80
2023/08/31 02:51:20;;;;;;;15.47;6.60;;;;;;;;;;5049078;28;20469;-80
2023/08/31 02:53:46;;;;;;;12.60;4.73;;;;;;;;;;5050151;28;20447;-80
2023/08/31 02:56:13;;;;;;;8.73;5.00;;;;;;;;;;5048043;28;20518;-80
2023/08/31 02:58:39;;;;;;;8.40;4.67;;;;;;;;;;5034477;28;20471;-80
2023/08/31 03:01:11;;;;;;;12.67;5.30;;;;;;;;;;5057424;28;20500;-80
2023/08/31 03:03:38;;;;;;;19.50;5.30;;;;;;;;;;5036860;28;20472;-80
2023/08/31 03:06:05;;;;;;;11.53;5.10;;;;;;;;;;5049067;28;20484;-80
2023/08/31 03:08:33;;;;;;;8.33;4.33;;;;;;;;;;5053118;28;20821;-80
2023/08/31 03:11:00;;;;;;;11.63;5.03;;;;;;;;;;5042366;28;20479;-80
2023/08/31 03:13:26;;;;;;;10.67;4.77;;;;;;;;;;5047989;28;20854;-80
2023/08/31 03:15:52;;;;;;;5.40;4.53;;;;;;;;;;5042698;28;20473;-80
2023/08/31 03:18:19;;;;;;;7.97;4.67;;;;;;;;;;5036707;28;20481;-80
2023/08/31 03:20:46;;;;;;;10.53;4.13;;;;;;;;;;5036009;28;20495;-80
2023/08/31 03:23:13;;;;;;;6.23;3.90;;;;;;;;;;5046607;28;20477;-80
2023/08/31 03:25:40;;;;;;;7.20;4.97;;;;;;;;;;5045686;28;20479;-80
2023/08/31 03:28:07;;;;;;;12.83;4.80;;;;;;;;;;5064579;28;20845;-80
2023/08/31 03:30:33;;;;;;;8.47;4.20;;;;;;;;;;5049078;28;20488;-80
2023/08/31 03:33:00;;;;;;;8.77;4.43;;;;;;;;;;5049064;28;20992;-80
2023/08/31 03:35:28;;;;;;;5.57;4.10;;;;;;;;;;5061751;28;20836;-80
2023/08/31 03:37:55;;;;;;;8.67;4.10;;;;;;;;;;5047768;28;20482;-80
2023/08/31 03:40:22;;;;;;;5.07;4.47;;;;;;;;;;5052454;28;20474;-80
2023/08/31 03:42:50;;;;;;;9.33;4.27;;;;;;;;;;5045014;28;20513;-80
2023/08/31 03:45:18;;;;;;;7.43;3.90;;;;;;;;;;5034487;28;20495;-80
2023/08/31 03:47:46;;;;;;;9.73;4.70;;;;;;;;;;5039089;28;20465;-80
2023/08/31 03:50:14;;;;;;;10.83;4.30;;;;;;;;;;5046056;28;20491;-79
2023/08/31 03:52:41;;;;;;;5.90;4.57;;;;;;;;;;5039212;28;20480;-80
2023/08/31 03:55:07;;;;;;;4.30;3.90;;;;;;;;;;5045163;28;20481;-80
2023/08/31 03:57:34;;;;;;;5.07;4.57;;;;;;;;;;5045911;28;20491;-81
2023/08/31 04:00:03;;;;;;;5.40;4.33;;;;;;;;;;5041801;28;21025;-80
2023/08/31 04:02:31;;;;;;;7.40;4.60;;;;;;;;;;5049656;28;20492;-81
2023/08/31 04:04:58;;;;;;;7.23;4.73;;;;;;;;;;5046570;28;21017;-80
2023/08/31 04:07:24;;;;;;;6.73;4.73;;;;;;;;;;5052489;28;20446;-80
2023/08/31 04:09:51;;;;;;;5.40;4.50;;;;;;;;;;5059338;28;20456;-80
2023/08/31 04:12:17;;;;;;;9.37;5.50;;;;;;;;;;5058110;28;20477;-80
2023/08/31 04:14:46;;;;;;;8.37;4.63;;;;;;;;;;5045912;28;20471;-81
2023/08/31 04:17:14;;;;;;;12.63;5.90;;;;;;;;;;5047886;28;20569;-81
2023/08/31 04:19:40;;;;;;;13.30;5.20;;;;;;;;;;5051781;28;20450;-80
2023/08/31 04:22:07;;;;;;;9.43;5.20;;;;;;;;;;5052203;28;20482;-80
2023/08/31 04:24:33;;;;;;;8.20;5.10;;;;;;;;;;5045496;28;20471;-80
2023/08/31 04:27:00;;;;;;;8.63;5.90;;;;;;;;;;5050204;28;20463;-80
2023/08/31 04:29:26;;;;;;;10.67;5.87;;;;;;;;;;5046654;28;20550;-80
2023/08/31 04:31:52;;;;;;;8.37;5.70;;;;;;;;;;5055716;28;20475;-80
2023/08/31 04:34:21;;;;;;;8.27;5.80;;;;;;;;;;5052519;28;20480;-80
2023/08/31 04:36:47;;;;;;;9.33;6.53;;;;;;;;;;5047978;28;20533;-80
2023/08/31 04:39:14;;;;;;;7.67;6.77;;;;;;;;;;5047429;28;20496;-80
2023/08/31 04:41:40;;;;;;;12.13;6.67;;;;;;;;;;5050333;28;20496;-80
2023/08/31 04:44:06;;;;;;;15.70;6.70;;;;;;;;;;5048928;28;20476;-80
2023/08/31 04:46:33;;;;;;;7.47;6.03;;;;;;;;;;5051761;28;20471;-80
2023/08/31 04:49:00;;;;;;;8.10;6.57;;;;;;;;;;5059892;28;20458;-80
2023/08/31 04:51:37;;;;;;;11.33;6.73;;;;;;;;;;5064563;28;20471;-80
2023/08/31 04:54:03;;;;;;;9.87;6.43;;;;;;;;;;5059392;28;20484;-80
2023/08/31 04:56:31;;;;;;;14.60;8.23;;;;;;;;;;5057251;28;20467;-80
2023/08/31 04:58:59;;;;;;;9.20;7.17;;;;;;;;;;5063349;28;20478;-80
2023/08/31 05:01:25;;;;;;;10.87;7.33;;;;;;;;;;5048898;28;20500;-80
2023/08/31 05:03:52;;;;;;;12.47;7.40;;;;;;;;;;5048263;28;20480;-81
2023/08/31 05:06:18;;;;;;;7.87;6.80;;;;;;;;;;5052979;28;20587;-80
2023/08/31 05:08:46;;;;;;;13.20;7.80;;;;;;;;;;5035525;28;20475;-81
2023/08/31 05:11:12;;;;;;;12.20;8.17;;;;;;;;;;5053912;28;20483;-81
2023/08/31 05:13:41;;;;;;;11.33;7.33;;;;;;;;;;5055010;28;20816;-81
2023/08/31 05:16:08;;;;;;;8.97;8.07;;;;;;;;;;5043791;28;20918;-81
2023/08/31 05:18:35;;;;;;;13.17;9.07;;;;;;;;;;5047198;28;20479;-81
2023/08/31 05:21:02;;;;;;;12.10;9.07;;;;;;;;;;5057329;28;20911;-81
2023/08/31 05:23:28;;;;;;;13.50;8.90;;;;;;;;;;5045565;28;20469;-81
2023/08/31 05:25:56;;;;;;;10.87;8.67;;;;;;;;;;5055740;28;20474;-81
2023/08/31 05:28:23;;;;;;;18.30;8.80;;;;;;;;;;5041737;28;20480;-81
2023/08/31 05:30:50;;;;;;;17.20;9.23;;;;;;;;;;5055471;28;20490;-81
2023/08/31 05:33:17;;;;;;;15.07;8.47;;;;;;;;;;5043342;28;20472;-81
2023/08/31 05:35:43;;;;;;;13.77;8.80;;;;;;;;;;5057557;28;20455;-81
2023/08/31 05:38:10;;;;;;;14.90;9.97;;;;;;;;;;5036801;28;20479;-81
2023/08/31 05:40:36;;;;;;;13.10;9.27;;;;;;;;;;5041332;28;20478;-81
2023/08/31 05:43:04;;;;;;;18.93;9.90;;;;;;;;;;5058794;28;20867;-81
2023/08/31 05:45:32;;;;;;;16.93;8.50;;;;;;;;;;5043124;28;20480;-81
2023/08/31 05:48:00;;;;;;;15.43;9.77;;;;;;;;;;5022786;28;20826;-80
2023/08/31 05:50:26;;;;;;;12.63;9.20;;;;;;;;;;5052505;28;20484;-80
2023/08/31 05:52:52;;;;;;;15.90;10.67;;;;;;;;;;5057107;28;20458;-80
2023/08/31 05:55:19;;;;;;;12.00;9.67;;;;;;;;;;5060328;28;20484;-80
2023/08/31 05:57:45;;;;;;;17.37;10.03;;;;;;;;;;5052135;28;20858;-80
2023/08/31 06:00:14;;;;;;;10.60;8.73;;;;;;;;;;5049466;28;20488;-80
2023/08/31 06:02:41;;;;;;;15.30;10.30;;;;;;;;;;5039381;28;20484;-81
2023/08/31 06:05:07;;;;;;;13.40;10.17;;;;;;;;;;5053855;28;20479;-80
2023/08/31 06:07:34;;;;;;;11.20;9.50;;;;;;;;;;5052091;28;20485;-81
2023/08/31 06:10:01;;;;;;;15.40;10.27;;;;;;;;;;5055230;28;20496;-81
2023/08/31 06:12:27;;;;;;;14.40;10.67;;;;;;;;;;5049350;28;21104;-81
2023/08/31 06:14:54;;;;;;;11.17;9.47;;;;;;;;;;5057399;28;20484;-80
2023/08/31 06:17:21;;;;;;;12.33;9.67;;;;;;;;;;5048906;28;20481;-80
2023/08/31 06:19:48;;;;;;;13.30;9.50;;;;;;;;;;5045652;28;20479;-81
2023/08/31 06:22:14;;;;;;;18.40;10.70;;;;;;;;;;5043912;28;20840;-81
2023/08/31 06:24:42;;;;;;;15.07;10.20;;;;;;;;;;5060030;28;21040;-80
2023/08/31 06:27:08;;;;;;;12.23;9.10;;;;;;;;;;5031110;28;20861;-80
2023/08/31 06:29:35;;;;;;;15.27;10.00;;;;;;;;;;5050023;28;20482;-80
2023/08/31 06:32:01;;;;;;;14.20;10.10;;;;;;;;;;5050945;28;20484;-81
2023/08/31 06:34:30;;;;;;;15.77;10.67;;;;;;;;;;5052936;28;21032;-80
2023/08/31 06:36:58;;;;;;;15.93;10.63;;;;;;;;;;5054931;28;20458;-81
2023/08/31 06:39:24;;;;;;;12.87;9.70;;;;;;;;;;5061917;28;20920;-81
2023/08/31 06:41:50;;;;;;;14.43;10.93;;;;;;;;;;5048865;28;20494;-81
2023/08/31 06:44:17;;;;;;;15.93;9.47;;;;;;;;;;5048753;28;20481;-81
2023/08/31 06:46:44;;;;;;;11.40;9.47;;;;;;;;;;5052330;28;20981;-80
2023/08/31 06:49:10;;;;;;;13.77;9.73;;;;;;;;;;5046831;28;20475;-80
2023/08/31 06:51:38;;;;;;;14.67;9.97;;;;;;;;;;5053036;28;20555;-80
2023/08/31 06:54:05;;;;;;;19.33;10.00;;;;;;;;;;5051016;28;20470;-80
2023/08/31 06:56:32;;;;;;;11.30;9.63;;;;;;;;;;5052962;28;20492;-80
2023/08/31 06:58:58;;;;;;;16.80;11.57;;;;;;;;;;5054019;28;20480;-80
2023/08/31 07:01:26;;;;;;;12.67;10.33;;;;;;;;;;5047815;28;20487;-80
2023/08/31 07:03:53;;;;;;;10.97;9.70;;;;;;;;;;5035241;28;20561;-80
2023/08/31 07:06:19;;;;;;;15.50;11.33;;;;;;;;;;5053715;28;20595;-80
2023/08/31 07:08:49;;;;;;;14.33;9.90;;;;;;;;;;5059041;28;20455;-80
2023/08/31 07:11:15;;;;;;;15.80;9.00;;;;;;;;;;5043516;28;21014;-80
2023/08/31 07:13:42;;;;;;;11.00;9.90;;;;;;;;;;5049534;28;20486;-80
2023/08/31 07:16:08;;;;;;;12.93;9.33;;;;;;;;;;5049610;28;20486;-80
2023/08/31 07:18:34;;;;;;;18.83;10.57;;;;;;;;;;5049264;28;20460;-80
2023/08/31 07:21:01;;;;;;;14.60;9.33;;;;;;;;;;5054909;28;20479;-80
2023/08/31 07:23:27;;;;;;;14.50;10.27;;;;;;;;;;5051193;28;20467;-81
2023/08/31 07:25:57;;;;;;;12.67;9.90;;;;;;;;;;5045551;28;21073;-80
2023/08/31 07:28:23;;;;;;;17.20;10.33;;;;;;;;;;5038775;28;20849;-80
2023/08/31 07:30:50;;;;;;;16.87;9.80;;;;;;;;;;5044953;28;20452;-80
2023/08/31 07:33:16;;;;;;;13.30;11.07;;;;;;;;;;5055732;28;20995;-80
2023/08/31 07:35:43;;;;;;;14.87;9.03;;;;;;;;;;5053321;28;20480;-80
2023/08/31 07:38:09;;;;;;;15.60;10.27;;;;;;;;;;5055271;28;20468;-80
2023/08/31 07:40:37;;;;;;;13.67;10.10;;;;;;;;;;5049523;28;20576;-81
2023/08/31 07:43:05;;;;;;;15.00;10.80;;;;;;;;;;5049425;28;20909;-81
2023/08/31 07:45:32;;;;;;;12.63;10.50;;;;;;;;;;5037913;28;20485;-80
2023/08/31 07:47:58;;;;;;;10.83;9.50;;;;;;;;;;5038967;28;20486;-80
2023/08/31 07:50:25;;;;;;;12.23;9.60;;;;;;;;;;5057777;28;20491;-81
2023/08/31 07:52:51;;;;;;;12.67;9.30;;;;;;;;;;5046653;28;20500;-81
2023/08/31 07:55:18;;;;;;;13.27;9.63;;;;;;;;;;5057240;28;20477;-81
2023/08/31 07:57:44;;;;;;;11.60;8.70;;;;;;;;;;5042224;28;20476;-80
2023/08/31 08:00:14;;;;;;;11.93;10.67;;;;;;;;;;5045460;28;20487;-80
2023/08/31 08:02:41;;;;;;;14.33;9.83;;;;;;;;;;5054332;28;20493;-80
2023/08/31 08:05:08;;;;;;;10.33;9.23;;;;;;;;;;5062510;28;20445;-80
2023/08/31 08:07:34;;;;;;;13.53;8.67;;;;;;;;;;5058973;28;20461;-85
2023/08/31 08:10:00;;;;;;;12.37;9.20;;;;;;;;;;5031676;28;20482;-80
2023/08/31 08:12:28;;;;;;;11.40;8.90;;;;;;;;;;5046635;28;20516;-81
2023/08/31 08:14:54;;;;;;;12.07;8.23;;;;;;;;;;5041983;28;20486;-81
2023/08/31 08:17:22;;;;;;;10.03;8.20;;;;;;;;;;5048656;28;20979;-80
2023/08/31 08:19:48;;;;;;;10.30;7.77;;;;;;;;;;5055189;28;20467;-80
2023/08/31 08:22:15;;;;;;;11.07;7.83;;;;;;;;;;5042375;28;20470;-80
2023/08/31 08:24:41;;;;;;;12.07;8.47;;;;;;;;;;5047413;28;20457;-81
2023/08/31 08:27:07;;;;;;;8.80;7.90;;;;;;;;;;5043244;28;20487;-81
2023/08/31 08:29:34;;;;;;;10.90;7.40;;;;;;;;;;5057699;28;20478;-80
2023/08/31 08:32:00;;;;;;;9.53;7.23;;;;;;;;;;5051698;28;20483;-82
2023/08/31 08:34:28;;;;;;;8.53;7.17;;;;;;;;;;5046993;28;21148;-81
2023/08/31 08:36:55;;;;;;;22.83;8.43;;;;;;;;;;5049500;28;21002;-80
2023/08/31 08:39:21;;;;;;;13.63;8.63;;;;;;;;;;5054614;28;20445;-80
2023/08/31 08:41:48;;;;;;;11.50;7.03;;;;;;;;;;5048335;28;20456;-80
2023/08/31 08:44:17;;;;;;;8.60;7.10;;;;;;;;;;5043850;28;20570;-80
2023/08/31 08:46:44;;;;;;;6.90;6.27;;;;;;;;;;5042628;28;20476;-81
2023/08/31 08:49:11;;;;;;;8.90;6.40;;;;;;;;;;5045089;28;20858;-81
2023/08/31 08:51:39;;;;;;;6.80;6.00;;;;;;;;;;5046671;28;20458;-80
2023/08/31 08:54:06;;;;;;;8.27;6.83;;;;;;;;;;5059892;28;20451;-81
2023/08/31 08:56:33;;;;;;;10.43;6.50;;;;;;;;;;5050470;28;20849;-81
2023/08/31 08:58:59;;;;;;;7.27;5.97;;;;;;;;;;5044512;28;20496;-81
2023/08/31 09:01:26;;;;;;;9.67;6.40;;;;;;;;;;5035376;28;20836;-80
2023/08/31 09:03:53;;;;;;;7.47;6.53;;;;;;;;;;5026814;28;20488;-81
2023/08/31 09:06:20;;;;;;;7.50;6.20;;;;;;;;;;5050099;28;20972;-81
2023/08/31 09:08:53;;;;;;;8.27;6.27;;;;;;;;;;5045911;28;20443;-81
2023/08/31 09:11:23;;;;;;;9.50;6.30;;;;;;;;;;5047097;28;20488;-80
2023/08/31 09:13:49;;;;;;;9.20;6.97;;;;;;;;;;5035199;28;21017;-81
2023/08/31 09:16:25;;;;;;;11.10;7.03;;;;;;;;;;5041433;28;20459;-81
2023/08/31 09:18:52;;;;;;;10.30;6.60;;;;;;;;;;5046404;28;20467;-81
2023/08/31 09:21:19;;;;;;;9.57;6.80;;;;;;;;;;5038500;28;20481;-81
2023/08/31 09:23:47;;;;;;;13.70;6.40;;;;;;;;;;5046645;28;20489;-81
2023/08/31 09:26:15;;;;;;;10.97;6.63;;;;;;;;;;5049834;28;20576;-81
2023/08/31 09:28:43;;;;;;;7.53;5.57;;;;;;;;;;5055720;28;20445;-80
2023/08/31 09:31:10;;;;;;;13.20;6.60;;;;;;;;;;5046738;28;20476;-81
2023/08/31 09:33:36;;;;;;;8.77;6.87;;;;;;;;;;5052652;28;20451;-80
2023/08/31 09:36:03;;;;;;;5.23;4.67;;;;;;;;;;5060051;28;20507;-80
2023/08/31 09:38:30;;;;;;;8.13;6.13;;;;;;;;;;5049827;28;21058;-81
2023/08/31 09:41:04;;;;;;;7.20;4.73;;;;;;;;;;5051101;28;20480;-81
2023/08/31 09:43:34;;;;;;;11.20;5.27;;;;;;;;;;5037153;28;20572;-80
2023/08/31 09:46:01;;;;;;;5.80;5.00;;;;;;;;;;5050334;28;20485;-80
2023/08/31 09:48:27;;;;;;;5.90;4.63;;;;;;;;;;5038027;28;20476;-80
2023/08/31 09:50:55;;;;;;;6.47;4.40;;;;;;;;;;5046712;28;20472;-80
2023/08/31 09:53:22;;;;;;;9.53;3.90;;;;;;;;;;5052738;28;20450;-81
2023/08/31 09:55:49;;;;;;;4.73;4.30;;;;;;;;;;5056998;28;20493;-81
2023/08/31 09:58:18;;;;;;;4.57;4.03;;;;;;;;;;5039288;28;20455;-81
2023/08/31 10:00:47;;;;;;;5.53;4.63;;;;;;;;;;5062671;28;20486;-81
2023/08/31 10:03:15;;;;;;;4.90;4.50;;;;;;;;;;5045974;28;20450;-81
2023/08/31 10:05:42;;;;;;;3.93;3.37;;;;;;;;;;5050539;28;20472;-81
2023/08/31 10:08:09;;;;;;;5.90;3.83;;;;;;;;;;5022402;28;21359;-81
2023/08/31 10:10:36;;;;;;;4.23;3.80;;;;;;;;;;5054260;28;20456;-81
2023/08/31 10:13:05;;;;;;;4.10;2.90;;;;;;;;;;5053368;28;20488;-81
2023/08/31 10:15:33;;;;;;;5.90;3.60;;;;;;;;;;5048561;28;20476;-81
2023/08/31 10:18:02;;;;;;;3.93;2.97;;;;;;;;;;5053626;28;20522;-81
2023/08/31 10:20:31;;;;;;;5.77;2.97;;;;;;;;;;5048014;28;20489;-79
2023/08/31 10:22:58;;;;;;;3.17;2.80;;;;;;;;;;5036338;28;20559;-81
2023/08/31 10:25:26;;;;;;;4.77;2.87;;;;;;;;;;5050770;28;20510;-80
2023/08/31 10:27:54;;;;;;;3.97;2.90;;;;;;;;;;5028380;28;21019;-79
2023/08/31 10:30:29;;;;;;;3.40;2.80;;;;;;;;;;5036328;28;20572;-79
2023/08/31 10:33:15;;;;;;;2.67;2.47;;;;;;;;;;5059377;28;20467;-80
2023/08/31 10:35:49;;;;;;;4.27;2.70;;;;;;;;;;5042976;28;20484;-80
2023/08/31 10:38:15;;;;;;;7.07;2.27;;;;;;;;;;5051466;28;21019;-79
2023/08/31 10:40:41;;;;;;;6.90;2.07;;;;;;;;;;5048592;28;20476;-79
2023/08/31 10:43:17;;;;;;;2.77;2.00;;;;;;;;;;5050557;28;20483;-79
2023/08/31 10:45:44;;;;;;;2.30;1.90;;;;;;;;;;5059121;28;20494;-79
2023/08/31 10:48:10;;;;;;;4.27;1.77;;;;;;;;;;5052609;28;21028;-80
2023/08/31 10:50:41;;;;;;;3.20;2.30;;;;;;;;;;5047093;28;20489;-79
2023/08/31 10:53:11;;;;;;;3.00;1.70;;;;;;;;;;5039944;28;20476;-80
2023/08/31 10:55:50;;;;;;;2.70;1.67;;;;;;;;;;5050588;28;20603;-79
2023/08/31 10:58:17;;;;;;;2.33;1.40;;;;;;;;;;5047476;28;20462;-79
2023/08/31 11:00:52;;;;;;;4.80;1.50;;;;;;;;;;5050381;28;20475;-80
2023/08/31 11:03:18;;;;;;;2.47;1.83;;;;;;;;;;5048887;28;21024;-80
2023/08/31 11:05:55;;;;;;;4.77;2.60;;;;;;;;;;5045336;28;20518;-79
2023/08/31 11:08:24;;;;;;;2.33;2.13;;;;;;;;;;5052804;28;20472;-80
2023/08/31 11:10:50;;;;;;;4.47;2.63;;;;;;;;;;5052399;28;20472;-80
2023/08/31 11:13:17;;;;;;;4.43;2.40;;;;;;;;;;5053184;28;20471;-80
2023/08/31 11:15:47;;;;;;;3.97;2.30;;;;;;;;;;5051182;28;20573;-80
2023/08/31 11:18:17;;;;;;;6.60;2.40;;;;;;;;;;5054437;28;20467;-81
2023/08/31 11:20:44;;;;;;;7.40;2.60;;;;;;;;;;5061582;28;20485;-80
2023/08/31 11:23:10;;;;;;;4.20;2.60;;;;;;;;;;5056388;28;20505;-79
2023/08/31 11:25:38;;;;;;;10.00;4.40;;;;;;;;;;5055996;28;20486;-79
2023/08/31 11:28:06;;;;;;;6.47;2.60;;;;;;;;;;5039443;28;20465;-80
2023/08/31 11:30:35;;;;;;;4.60;2.50;;;;;;;;;;5056094;28;20484;-79
2023/08/31 11:33:03;;;;;;;4.77;2.17;;;;;;;;;;5058696;28;20464;-79
2023/08/31 11:35:34;;;;;;;4.07;2.17;;;;;;;;;;5046230;28;20487;-79
2023/08/31 11:38:01;;;;;;;4.23;2.10;;;;;;;;;;5046439;28;20473;-79
2023/08/31 11:40:27;;;;;;;2.93;1.67;;;;;;;;;;5046477;28;20478;-78
2023/08/31 11:42:56;;;;;;;6.97;2.30;;;;;;;;;;5043842;28;20458;-79
2023/08/31 11:45:23;;;;;;;5.40;2.33;;;;;;;;;;5051377;28;21171;-78
2023/08/31 11:47:51;;;;;;;5.00;2.40;;;;;;;;;;5031285;28;20482;-78
2023/08/31 11:50:17;;;;;;;4.47;1.67;;;;;;;;;;5041221;28;20867;-78
2023/08/31 11:52:44;;;;;;;4.40;1.70;;;;;;;;;;5034957;28;20835;-78
2023/08/31 11:55:13;;;;;;;2.20;1.17;;;;;;;;;;5046269;28;20489;-78
2023/08/31 11:57:41;;;;;;;2.57;1.27;;;;;;;;;;5042670;28;21003;-78
2023/08/31 12:00:10;;;;;;;3.63;1.40;;;;;;;;;;5037030;28;21245;-78
2023/08/31 12:02:37;;;;;;;4.97;1.70;;;;;;;;;;5046935;28;20476;-78
2023/08/31 12:05:05;;;;;;;2.50;1.40;;;;;;;;;;5050743;28;20497;-78
2023/08/31 12:07:31;;;;;;;3.83;1.83;;;;;;;;;;5054479;28;20610;-78
2023/08/31 12:10:02;;;;;;;3.97;1.70;;;;;;;;;;5052673;28;20482;-78
2023/08/31 12:12:32;;;;;;;3.00;1.40;;;;;;;;;;5039066;28;20493;-79
2023/08/31 12:15:00;;;;;;;3.43;1.30;;;;;;;;;;5039271;28;20484;-78
2023/08/31 12:17:29;;;;;;;2.73;1.10;;;;;;;;;;5039052;28;20497;-78
2023/08/31 12:20:04;;;;;;;1.87;1.30;;;;;;;;;;5050871;28;20569;-79
2023/08/31 12:22:30;;;;;;;1.67;1.20;;;;;;;;;;5066344;28;20485;-78
2023/08/31 12:24:56;;;;;;;5.20;1.17;;;;;;;;;;5051097;28;20488;-78
2023/08/31 12:27:23;;;;;;;4.70;1.43;;;;;;;;;;5049356;28;20492;-78
2023/08/31 12:29:50;;;;;;;1.60;1.10;;;;;;;;;;5043225;28;20476;-78
2023/08/31 12:32:17;;;;;;;4.20;1.47;;;;;;;;;;5042722;28;20510;-78
2023/08/31 12:34:45;;;;;;;1.40;1.00;;;;;;;;;;5052061;28;20564;-78
2023/08/31 12:37:11;;;;;;;3.13;1.37;;;;;;;;;;5038433;28;20483;-78
2023/08/31 12:39:38;;;;;;;2.07;1.43;;;;;;;;;;5053101;28;20475;-77
2023/08/31 12:42:05;;;;;;;3.30;1.43;;;;;;;;;;5053598;28;20469;-78
2023/08/31 12:44:31;;;;;;;3.20;1.30;;;;;;;;;;5041305;28;20476;-78
2023/08/31 12:46:58;;;;;;;1.63;1.50;;;;;;;;;;5046139;28;20475;-78
2023/08/31 12:49:26;;;;;;;1.73;1.00;;;;;;;;;;5045961;28;20484;-78
2023/08/31 12:51:53;;;;;;;1.70;1.20;;;;;;;;;;5050186;28;20478;-78
2023/08/31 12:54:20;;;;;;;1.37;1.20;;;;;;;;;;5048492;28;20472;-78
2023/08/31 12:56:46;;;;;;;2.80;1.37;;;;;;;;;;5042532;28;20494;-78
2023/08/31 12:59:13;;;;;;;1.23;1.13;;;;;;;;;;5048644;28;20454;-78
2023/08/31 13:01:39;;;;;;;1.90;1.10;;;;;;;;;;5047370;28;20532;-78
2023/08/31 13:04:06;;;;;;;3.23;1.03;;;;;;;;;;5048762;28;21044;-78
2023/08/31 13:06:32;;;;;;;3.30;1.60;;;;;;;;;;5044239;28;20917;-78
2023/08/31 13:09:00;;;;;;;1.53;1.10;;;;;;;;;;5060793;28;20993;-78
2023/08/31 13:11:26;;;;;;;0.80;0.80;;;;;;;;;;5038930;28;20475;-78
2023/08/31 13:13:53;;;;;;;1.97;1.00;;;;;;;;;;5074947;27;20510;-78
2023/08/31 13:16:24;;;;;;;1.00;0.90;;;;;;;;;;5049442;28;20981;-78
2023/08/31 13:18:50;;;;;;;1.73;1.63;;;;;;;;;;5047203;28;20464;-78
2023/08/31 13:21:17;;;;;;;1.40;1.27;;;;;;;;;;5049737;28;20495;-78
2023/08/31 13:23:44;;;;;;;1.70;1.20;;;;;;;;;;5044987;28;20488;-78
2023/08/31 13:26:12;;;;;;;2.77;0.90;;;;;;;;;;5058258;28;20505;-78
2023/08/31 13:28:38;;;;;;;2.10;1.40;;;;;;;;;;5055370;28;20477;-78
2023/08/31 13:31:05;;;;;;;1.00;0.90;;;;;;;;;;5023449;28;20484;-78
2023/08/31 13:33:32;;;;;;;1.80;1.30;;;;;;;;;;5055972;28;20467;-78
2023/08/31 13:35:58;;;;;;;1.30;1.20;;;;;;;;;;5044262;28;20479;-78
2023/08/31 13:38:25;;;;;;;1.30;1.20;;;;;;;;;;5040373;28;20476;-78
2023/08/31 13:40:55;;;;;;;2.43;1.20;;;;;;;;;;5050444;28;20495;-78
2023/08/31 13:43:23;;;;;;;1.30;1.20;;;;;;;;;;5059090;28;20469;-78
2023/08/31 13:45:49;;;;;;;2.30;1.50;;;;;;;;;;5053787;28;20989;-78
2023/08/31 13:48:16;;;;;;;1.10;1.00;;;;;;;;;;5051300;28;21096;-78
2023/08/31 13:50:42;;;;;;;2.30;1.50;;;;;;;;;;5066920;28;20852;-78
2023/08/31 13:53:11;;;;;;;2.63;1.20;;;;;;;;;;5060261;28;20474;-78
2023/08/31 13:55:37;;;;;;;2.13;1.20;;;;;;;;;;5044252;28;20525;-78
2023/08/31 13:58:07;;;;;;;1.23;1.13;;;;;;;;;;5049092;28;20467;-78
2023/08/31 14:00:35;;;;;;;1.30;1.20;;;;;;;;;;5048048;28;20486;-78
2023/08/31 14:03:02;;;;;;;1.37;1.13;;;;;;;;;;5038676;28;20526;-78
2023/08/31 14:05:29;;;;;;;2.70;1.10;;;;;;;;;;5046727;28;21070;-78
2023/08/31 14:07:56;;;;;;;2.40;1.10;;;;;;;;;;5055676;28;20471;-78
2023/08/31 14:10:22;;;;;;;2.93;1.23;;;;;;;;;;5050387;28;20500;-79
2023/08/31 14:12:50;;;;;;;1.70;1.30;;;;;;;;;;5050097;28;20470;-78
2023/08/31 14:15:17;;;;;;;4.03;1.37;;;;;;;;;;5043798;28;20493;-78
2023/08/31 14:17:44;;;;;;;1.40;1.10;;;;;;;;;;5061611;28;21041;-78
2023/08/31 14:20:11;;;;;;;3.00;1.40;;;;;;;;;;5056920;28;20996;-79
2023/08/31 14:22:42;;;;;;;2.30;1.27;;;;;;;;;;5055020;28;20483;-78
2023/08/31 14:25:09;;;;;;;1.20;1.03;;;;;;;;;;5045136;28;20489;-79
2023/08/31 14:27:36;;;;;;;3.13;1.20;;;;;;;;;;5043582;28;20919;-78
2023/08/31 14:30:02;;;;;;;3.23;1.40;;;;;;;;;;5040575;28;20485;-78
2023/08/31 14:32:32;;;;;;;0.90;0.90;;;;;;;;;;5054673;28;20490;-80
2023/08/31 14:35:00;;;;;;;1.37;1.00;;;;;;;;;;5046441;28;20875;-78
2023/08/31 14:37:29;;;;;;;2.87;1.37;;;;;;;;;;5044418;28;20492;-79
2023/08/31 14:39:55;;;;;;;1.20;0.97;;;;;;;;;;5034190;28;20484;-78